sensor_id;sensor_type;location;lat;lon;timestamp;P1;durP1;ratioP1;P2;durP2;ratioP2
77724;SDS011;66892;53.236;6.550;2023-04-03T00:01:39;4.57;;;4.32;;
77724;SDS011;66892;53.236;6.550;2023-04-03T00:04:06;1.13;;;0.90;;
77724;SDS011;66892;53.236;6.550;2023-04-03T00:06:32;0.85;;;0.60;;
77724;SDS011;66892;53.236;6.550;2023-04-03T00:08:59;0.93;;;0.77;;
77724;SDS011;66892;53.236;6.550;2023-04-03T00:11:25;0.82;;;0.50;;
77724;SDS011;66892;53.236;6.550;2023-04-03T00:13:51;0.95;;;0.63;;
77724;SDS011;66892;53.236;6.550;2023-04-03T00:16:17;0.85;;;0.63;;
77724;SDS011;66892;53.236;6.550;2023-04-03T00:18:43;1.20;;;0.80;;
77724;SDS011;66892;53.236;6.550;2023-04-03T00:21:10;0.80;;;0.68;;
77724;SDS011;66892;53.236;6.550;2023-04-03T00:23:37;0.93;;;0.70;;
77724;SDS011;66892;53.236;6.550;2023-04-03T00:26:05;1.05;;;0.77;;
77724;SDS011;66892;53.236;6.550;2023-04-03T00:28:31;1.25;;;0.75;;
77724;SDS011;66892;53.236;6.550;2023-04-03T00:30:57;1.27;;;0.75;;
77724;SDS011;66892;53.236;6.550;2023-04-03T00:33:23;0.90;;;0.60;;
77724;SDS011;66892;53.236;6.550;2023-04-03T00:35:50;1.05;;;0.80;;
77724;SDS011;66892;53.236;6.550;2023-04-03T00:38:16;1.40;;;1.08;;
77724;SDS011;66892;53.236;6.550;2023-04-03T00:40:44;1.13;;;0.77;;
77724;SDS011;66892;53.236;6.550;2023-04-03T00:43:14;1.17;;;0.88;;
77724;SDS011;66892;53.236;6.550;2023-04-03T00:45:42;1.23;;;0.85;;
77724;SDS011;66892;53.236;6.550;2023-04-03T00:48:11;0.70;;;0.60;;
77724;SDS011;66892;53.236;6.550;2023-04-03T00:50:42;0.57;;;0.57;;
77724;SDS011;66892;53.236;6.550;2023-04-03T00:53:11;1.13;;;0.75;;
77724;SDS011;66892;53.236;6.550;2023-04-03T00:55:40;1.00;;;0.70;;
77724;SDS011;66892;53.236;6.550;2023-04-03T00:58:08;1.15;;;0.73;;
77724;SDS011;66892;53.236;6.550;2023-04-03T01:00:37;0.60;;;0.55;;
77724;SDS011;66892;53.236;6.550;2023-04-03T01:03:08;1.17;;;0.70;;
77724;SDS011;66892;53.236;6.550;2023-04-03T01:05:34;0.50;;;0.50;;
77724;SDS011;66892;53.236;6.550;2023-04-03T01:08:00;1.27;;;0.70;;
77724;SDS011;66892;53.236;6.550;2023-04-03T01:10:27;1.23;;;0.82;;
77724;SDS011;66892;53.236;6.550;2023-04-03T01:12:53;0.77;;;0.63;;
77724;SDS011;66892;53.236;6.550;2023-04-03T01:15:20;1.08;;;0.93;;
77724;SDS011;66892;53.236;6.550;2023-04-03T01:17:50;1.20;;;0.80;;
77724;SDS011;66892;53.236;6.550;2023-04-03T01:20:23;1.50;;;0.90;;
77724;SDS011;66892;53.236;6.550;2023-04-03T01:23:13;1.30;;;0.75;;
77724;SDS011;66892;53.236;6.550;2023-04-03T01:28:16;0.75;;;0.65;;
77724;SDS011;66892;53.236;6.550;2023-04-03T01:30:44;1.02;;;0.80;;
77724;SDS011;66892;53.236;6.550;2023-04-03T01:33:17;1.02;;;0.63;;
77724;SDS011;66892;53.236;6.550;2023-04-03T01:35:43;1.60;;;1.10;;
77724;SDS011;66892;53.236;6.550;2023-04-03T01:38:09;0.98;;;0.70;;
77724;SDS011;66892;53.236;6.550;2023-04-03T01:40:36;1.17;;;0.70;;
77724;SDS011;66892;53.236;6.550;2023-04-03T01:43:02;1.13;;;0.80;;
77724;SDS011;66892;53.236;6.550;2023-04-03T01:45:28;1.50;;;0.80;;
77724;SDS011;66892;53.236;6.550;2023-04-03T01:47:54;1.60;;;0.90;;
77724;SDS011;66892;53.236;6.550;2023-04-03T01:50:21;0.90;;;0.70;;
77724;SDS011;66892;53.236;6.550;2023-04-03T01:52:47;1.65;;;0.90;;
77724;SDS011;66892;53.236;6.550;2023-04-03T01:55:13;0.63;;;0.60;;
77724;SDS011;66892;53.236;6.550;2023-04-03T01:57:40;1.38;;;0.65;;
77724;SDS011;66892;53.236;6.550;2023-04-03T02:00:07;0.75;;;0.70;;
77724;SDS011;66892;53.236;6.550;2023-04-03T02:02:33;1.83;;;0.95;;
77724;SDS011;66892;53.236;6.550;2023-04-03T02:05:00;0.80;;;0.63;;
77724;SDS011;66892;53.236;6.550;2023-04-03T02:07:27;1.98;;;1.02;;
77724;SDS011;66892;53.236;6.550;2023-04-03T02:09:53;1.48;;;0.73;;
77724;SDS011;66892;53.236;6.550;2023-04-03T02:12:19;1.10;;;0.63;;
77724;SDS011;66892;53.236;6.550;2023-04-03T02:14:45;1.15;;;0.82;;
77724;SDS011;66892;53.236;6.550;2023-04-03T02:17:11;0.88;;;0.63;;
77724;SDS011;66892;53.236;6.550;2023-04-03T02:19:37;1.08;;;0.82;;
77724;SDS011;66892;53.236;6.550;2023-04-03T02:22:04;0.88;;;0.68;;
77724;SDS011;66892;53.236;6.550;2023-04-03T02:24:32;1.27;;;0.77;;
77724;SDS011;66892;53.236;6.550;2023-04-03T02:26:58;0.60;;;0.60;;
77724;SDS011;66892;53.236;6.550;2023-04-03T02:29:24;1.08;;;0.85;;
77724;SDS011;66892;53.236;6.550;2023-04-03T02:31:51;1.35;;;0.75;;
77724;SDS011;66892;53.236;6.550;2023-04-03T02:34:17;0.98;;;0.90;;
77724;SDS011;66892;53.236;6.550;2023-04-03T02:36:43;1.10;;;0.70;;
77724;SDS011;66892;53.236;6.550;2023-04-03T02:39:09;1.27;;;0.80;;
77724;SDS011;66892;53.236;6.550;2023-04-03T02:41:37;1.45;;;0.80;;
77724;SDS011;66892;53.236;6.550;2023-04-03T02:44:03;0.98;;;0.60;;
77724;SDS011;66892;53.236;6.550;2023-04-03T02:46:31;2.33;;;1.33;;
77724;SDS011;66892;53.236;6.550;2023-04-03T02:48:57;1.00;;;0.68;;
77724;SDS011;66892;53.236;6.550;2023-04-03T02:51:23;1.08;;;0.70;;
77724;SDS011;66892;53.236;6.550;2023-04-03T02:53:50;1.75;;;0.90;;
77724;SDS011;66892;53.236;6.550;2023-04-03T02:56:16;0.90;;;0.70;;
77724;SDS011;66892;53.236;6.550;2023-04-03T02:58:45;1.25;;;0.80;;
77724;SDS011;66892;53.236;6.550;2023-04-03T03:01:11;1.17;;;0.70;;
77724;SDS011;66892;53.236;6.550;2023-04-03T03:03:37;0.95;;;0.73;;
77724;SDS011;66892;53.236;6.550;2023-04-03T03:06:04;1.33;;;0.90;;
77724;SDS011;66892;53.236;6.550;2023-04-03T03:08:32;1.85;;;0.80;;
77724;SDS011;66892;53.236;6.550;2023-04-03T03:10:58;1.63;;;1.00;;
77724;SDS011;66892;53.236;6.550;2023-04-03T03:13:24;1.40;;;0.80;;
77724;SDS011;66892;53.236;6.550;2023-04-03T03:15:52;1.13;;;0.70;;
77724;SDS011;66892;53.236;6.550;2023-04-03T03:18:18;1.42;;;0.70;;
77724;SDS011;66892;53.236;6.550;2023-04-03T03:20:44;1.02;;;0.73;;
77724;SDS011;66892;53.236;6.550;2023-04-03T03:23:10;1.38;;;0.70;;
77724;SDS011;66892;53.236;6.550;2023-04-03T03:25:37;2.08;;;0.80;;
77724;SDS011;66892;53.236;6.550;2023-04-03T03:28:03;0.63;;;0.60;;
77724;SDS011;66892;53.236;6.550;2023-04-03T03:30:30;1.25;;;0.80;;
77724;SDS011;66892;53.236;6.550;2023-04-03T03:32:57;1.60;;;0.88;;
77724;SDS011;66892;53.236;6.550;2023-04-03T03:35:23;1.27;;;0.82;;
77724;SDS011;66892;53.236;6.550;2023-04-03T03:37:50;1.48;;;0.82;;
77724;SDS011;66892;53.236;6.550;2023-04-03T03:40:16;1.70;;;1.15;;
77724;SDS011;66892;53.236;6.550;2023-04-03T03:42:42;1.50;;;0.73;;
77724;SDS011;66892;53.236;6.550;2023-04-03T03:45:08;1.52;;;1.00;;
77724;SDS011;66892;53.236;6.550;2023-04-03T03:47:35;1.00;;;0.80;;
77724;SDS011;66892;53.236;6.550;2023-04-03T03:50:03;1.13;;;0.80;;
77724;SDS011;66892;53.236;6.550;2023-04-03T03:52:30;1.50;;;1.13;;
77724;SDS011;66892;53.236;6.550;2023-04-03T03:54:56;1.08;;;0.70;;
77724;SDS011;66892;53.236;6.550;2023-04-03T03:57:22;1.35;;;0.80;;
77724;SDS011;66892;53.236;6.550;2023-04-03T03:59:48;1.50;;;0.82;;
77724;SDS011;66892;53.236;6.550;2023-04-03T04:02:15;1.10;;;0.80;;
77724;SDS011;66892;53.236;6.550;2023-04-03T04:04:41;2.17;;;1.00;;
77724;SDS011;66892;53.236;6.550;2023-04-03T04:07:09;1.67;;;1.10;;
77724;SDS011;66892;53.236;6.550;2023-04-03T04:09:35;1.05;;;0.85;;
77724;SDS011;66892;53.236;6.550;2023-04-03T04:12:01;1.55;;;1.08;;
77724;SDS011;66892;53.236;6.550;2023-04-03T04:14:27;1.25;;;0.80;;
77724;SDS011;66892;53.236;6.550;2023-04-03T04:16:53;1.73;;;1.02;;
77724;SDS011;66892;53.236;6.550;2023-04-03T04:19:19;1.42;;;0.80;;
77724;SDS011;66892;53.236;6.550;2023-04-03T04:21:45;1.67;;;1.20;;
77724;SDS011;66892;53.236;6.550;2023-04-03T04:24:12;1.25;;;0.75;;
77724;SDS011;66892;53.236;6.550;2023-04-03T04:26:38;1.33;;;0.80;;
77724;SDS011;66892;53.236;6.550;2023-04-03T04:29:04;0.98;;;0.70;;
77724;SDS011;66892;53.236;6.550;2023-04-03T04:31:30;0.85;;;0.70;;
77724;SDS011;66892;53.236;6.550;2023-04-03T04:33:56;1.73;;;0.90;;
77724;SDS011;66892;53.236;6.550;2023-04-03T04:36:23;1.13;;;0.75;;
77724;SDS011;66892;53.236;6.550;2023-04-03T04:38:49;1.52;;;0.82;;
77724;SDS011;66892;53.236;6.550;2023-04-03T04:41:19;1.42;;;0.85;;
77724;SDS011;66892;53.236;6.550;2023-04-03T04:43:47;1.60;;;0.90;;
77724;SDS011;66892;53.236;6.550;2023-04-03T04:46:13;1.40;;;1.02;;
77724;SDS011;66892;53.236;6.550;2023-04-03T04:48:39;1.95;;;1.02;;
77724;SDS011;66892;53.236;6.550;2023-04-03T04:51:06;1.77;;;1.10;;
77724;SDS011;66892;53.236;6.550;2023-04-03T04:53:32;1.33;;;1.08;;
77724;SDS011;66892;53.236;6.550;2023-04-03T04:55:58;1.55;;;1.00;;
77724;SDS011;66892;53.236;6.550;2023-04-03T04:58:26;1.38;;;0.90;;
77724;SDS011;66892;53.236;6.550;2023-04-03T05:00:57;1.42;;;0.85;;
77724;SDS011;66892;53.236;6.550;2023-04-03T05:03:24;1.33;;;0.80;;
77724;SDS011;66892;53.236;6.550;2023-04-03T05:05:50;1.73;;;0.90;;
77724;SDS011;66892;53.236;6.550;2023-04-03T05:08:16;1.85;;;1.00;;
77724;SDS011;66892;53.236;6.550;2023-04-03T05:10:42;1.98;;;1.33;;
77724;SDS011;66892;53.236;6.550;2023-04-03T05:13:10;1.10;;;0.73;;
77724;SDS011;66892;53.236;6.550;2023-04-03T05:15:37;1.67;;;1.25;;
77724;SDS011;66892;53.236;6.550;2023-04-03T05:18:04;1.48;;;1.00;;
77724;SDS011;66892;53.236;6.550;2023-04-03T05:20:30;1.77;;;1.15;;
77724;SDS011;66892;53.236;6.550;2023-04-03T05:22:56;1.52;;;0.82;;
77724;SDS011;66892;53.236;6.550;2023-04-03T05:25:22;1.88;;;1.20;;
77724;SDS011;66892;53.236;6.550;2023-04-03T05:27:49;1.08;;;0.77;;
77724;SDS011;66892;53.236;6.550;2023-04-03T05:30:15;1.23;;;0.80;;
77724;SDS011;66892;53.236;6.550;2023-04-03T05:32:43;1.42;;;0.75;;
77724;SDS011;66892;53.236;6.550;2023-04-03T05:35:09;0.90;;;0.70;;
77724;SDS011;66892;53.236;6.550;2023-04-03T05:37:35;1.58;;;0.95;;
77724;SDS011;66892;53.236;6.550;2023-04-03T05:40:05;1.48;;;0.88;;
77724;SDS011;66892;53.236;6.550;2023-04-03T05:42:32;1.65;;;0.85;;
77724;SDS011;66892;53.236;6.550;2023-04-03T05:44:58;1.25;;;0.82;;
77724;SDS011;66892;53.236;6.550;2023-04-03T05:47:24;2.17;;;1.00;;
77724;SDS011;66892;53.236;6.550;2023-04-03T05:49:51;1.98;;;1.00;;
77724;SDS011;66892;53.236;6.550;2023-04-03T05:52:19;1.10;;;0.80;;
77724;SDS011;66892;53.236;6.550;2023-04-03T05:54:48;1.10;;;0.70;;
77724;SDS011;66892;53.236;6.550;2023-04-03T05:57:14;1.45;;;0.90;;
77724;SDS011;66892;53.236;6.550;2023-04-03T05:59:41;1.25;;;0.88;;
77724;SDS011;66892;53.236;6.550;2023-04-03T06:02:09;1.92;;;1.15;;
77724;SDS011;66892;53.236;6.550;2023-04-03T06:04:37;1.67;;;0.93;;
77724;SDS011;66892;53.236;6.550;2023-04-03T06:07:04;1.15;;;0.80;;
77724;SDS011;66892;53.236;6.550;2023-04-03T06:09:31;1.15;;;0.90;;
77724;SDS011;66892;53.236;6.550;2023-04-03T06:11:57;1.35;;;1.05;;
77724;SDS011;66892;53.236;6.550;2023-04-03T06:14:24;1.48;;;0.90;;
77724;SDS011;66892;53.236;6.550;2023-04-03T06:16:50;1.13;;;1.00;;
77724;SDS011;66892;53.236;6.550;2023-04-03T06:19:16;1.85;;;1.13;;
77724;SDS011;66892;53.236;6.550;2023-04-03T06:21:42;1.10;;;0.90;;
77724;SDS011;66892;53.236;6.550;2023-04-03T06:24:10;2.92;;;1.27;;
77724;SDS011;66892;53.236;6.550;2023-04-03T06:26:39;1.55;;;1.00;;
77724;SDS011;66892;53.236;6.550;2023-04-03T06:29:05;1.40;;;0.95;;
77724;SDS011;66892;53.236;6.550;2023-04-03T06:31:31;1.25;;;0.90;;
77724;SDS011;66892;53.236;6.550;2023-04-03T06:33:57;1.33;;;1.02;;
77724;SDS011;66892;53.236;6.550;2023-04-03T06:36:23;1.55;;;1.25;;
77724;SDS011;66892;53.236;6.550;2023-04-03T06:38:49;1.55;;;1.08;;
77724;SDS011;66892;53.236;6.550;2023-04-03T06:41:17;2.30;;;1.20;;
77724;SDS011;66892;53.236;6.550;2023-04-03T06:43:43;1.77;;;1.33;;
77724;SDS011;66892;53.236;6.550;2023-04-03T06:46:12;1.55;;;1.38;;
77724;SDS011;66892;53.236;6.550;2023-04-03T06:48:40;3.50;;;3.30;;
77724;SDS011;66892;53.236;6.550;2023-04-03T06:51:06;4.68;;;4.40;;
77724;SDS011;66892;53.236;6.550;2023-04-03T06:53:44;4.10;;;3.80;;
77724;SDS011;66892;53.236;6.550;2023-04-03T06:56:11;2.55;;;2.35;;
77724;SDS011;66892;53.236;6.550;2023-04-03T06:58:38;2.72;;;2.53;;
77724;SDS011;66892;53.236;6.550;2023-04-03T07:01:04;1.63;;;1.15;;
77724;SDS011;66892;53.236;6.550;2023-04-03T07:03:31;1.60;;;1.05;;
77724;SDS011;66892;53.236;6.550;2023-04-03T07:05:57;1.42;;;0.90;;
77724;SDS011;66892;53.236;6.550;2023-04-03T07:08:23;1.48;;;0.95;;
77724;SDS011;66892;53.236;6.550;2023-04-03T07:10:51;1.15;;;0.80;;
77724;SDS011;66892;53.236;6.550;2023-04-03T07:13:17;1.88;;;1.00;;
77724;SDS011;66892;53.236;6.550;2023-04-03T07:15:44;1.38;;;0.77;;
77724;SDS011;66892;53.236;6.550;2023-04-03T07:18:11;1.45;;;0.90;;
77724;SDS011;66892;53.236;6.550;2023-04-03T07:20:38;1.15;;;0.65;;
77724;SDS011;66892;53.236;6.550;2023-04-03T07:23:04;2.30;;;1.10;;
77724;SDS011;66892;53.236;6.550;2023-04-03T07:25:30;1.67;;;1.50;;
77724;SDS011;66892;53.236;6.550;2023-04-03T07:27:57;1.23;;;0.93;;
77724;SDS011;66892;53.236;6.550;2023-04-03T07:30:23;1.23;;;0.88;;
77724;SDS011;66892;53.236;6.550;2023-04-03T07:32:50;1.35;;;0.80;;
77724;SDS011;66892;53.236;6.550;2023-04-03T07:35:17;2.00;;;1.13;;
77724;SDS011;66892;53.236;6.550;2023-04-03T07:37:43;1.05;;;0.80;;
77724;SDS011;66892;53.236;6.550;2023-04-03T07:40:09;1.20;;;0.93;;
77724;SDS011;66892;53.236;6.550;2023-04-03T07:42:37;1.33;;;0.80;;
77724;SDS011;66892;53.236;6.550;2023-04-03T07:45:03;1.92;;;0.95;;
77724;SDS011;66892;53.236;6.550;2023-04-03T07:47:30;0.98;;;0.68;;
77724;SDS011;66892;53.236;6.550;2023-04-03T07:49:58;1.77;;;1.02;;
77724;SDS011;66892;53.236;6.550;2023-04-03T07:52:24;1.50;;;0.82;;
77724;SDS011;66892;53.236;6.550;2023-04-03T07:54:51;1.75;;;1.10;;
77724;SDS011;66892;53.236;6.550;2023-04-03T07:57:17;1.83;;;0.80;;
77724;SDS011;66892;53.236;6.550;2023-04-03T07:59:43;0.90;;;0.65;;
77724;SDS011;66892;53.236;6.550;2023-04-03T08:02:09;1.27;;;0.77;;
77724;SDS011;66892;53.236;6.550;2023-04-03T08:04:35;0.80;;;0.60;;
77724;SDS011;66892;53.236;6.550;2023-04-03T08:07:02;1.17;;;0.80;;
77724;SDS011;66892;53.236;6.550;2023-04-03T08:09:28;1.75;;;0.80;;
77724;SDS011;66892;53.236;6.550;2023-04-03T08:11:54;0.85;;;0.63;;
77724;SDS011;66892;53.236;6.550;2023-04-03T08:14:20;1.52;;;0.95;;
77724;SDS011;66892;53.236;6.550;2023-04-03T08:16:47;1.55;;;0.70;;
77724;SDS011;66892;53.236;6.550;2023-04-03T08:19:14;1.15;;;0.70;;
77724;SDS011;66892;53.236;6.550;2023-04-03T08:21:41;1.52;;;1.10;;
77724;SDS011;66892;53.236;6.550;2023-04-03T08:24:08;1.05;;;0.80;;
77724;SDS011;66892;53.236;6.550;2023-04-03T08:26:34;0.90;;;0.60;;
77724;SDS011;66892;53.236;6.550;2023-04-03T08:29:01;1.38;;;0.90;;
77724;SDS011;66892;53.236;6.550;2023-04-03T08:31:27;1.58;;;0.90;;
77724;SDS011;66892;53.236;6.550;2023-04-03T08:33:53;0.80;;;0.70;;
77724;SDS011;66892;53.236;6.550;2023-04-03T08:36:20;1.00;;;0.70;;
77724;SDS011;66892;53.236;6.550;2023-04-03T08:38:47;1.08;;;0.80;;
77724;SDS011;66892;53.236;6.550;2023-04-03T08:41:16;0.85;;;0.60;;
77724;SDS011;66892;53.236;6.550;2023-04-03T08:43:58;0.60;;;0.60;;
77724;SDS011;66892;53.236;6.550;2023-04-03T08:46:32;0.75;;;0.60;;
77724;SDS011;66892;53.236;6.550;2023-04-03T08:49:06;1.10;;;0.70;;
77724;SDS011;66892;53.236;6.550;2023-04-03T08:51:43;0.98;;;0.60;;
77724;SDS011;66892;53.236;6.550;2023-04-03T08:54:14;0.95;;;0.70;;
77724;SDS011;66892;53.236;6.550;2023-04-03T08:56:52;0.70;;;0.60;;
77724;SDS011;66892;53.236;6.550;2023-04-03T08:59:21;1.77;;;0.80;;
77724;SDS011;66892;53.236;6.550;2023-04-03T09:01:53;1.15;;;0.70;;
77724;SDS011;66892;53.236;6.550;2023-04-03T09:04:21;0.88;;;0.70;;
77724;SDS011;66892;53.236;6.550;2023-04-03T09:06:49;1.08;;;0.60;;
77724;SDS011;66892;53.236;6.550;2023-04-03T09:09:22;0.60;;;0.60;;
77724;SDS011;66892;53.236;6.550;2023-04-03T09:14:27;0.80;;;0.50;;
77724;SDS011;66892;53.236;6.550;2023-04-03T09:17:00;0.80;;;0.60;;
77724;SDS011;66892;53.236;6.550;2023-04-03T09:19:33;1.13;;;0.85;;
77724;SDS011;66892;53.236;6.550;2023-04-03T09:22:11;0.50;;;0.50;;
77724;SDS011;66892;53.236;6.550;2023-04-03T09:24:42;0.65;;;0.50;;
77724;SDS011;66892;53.236;6.550;2023-04-03T09:27:12;0.95;;;0.73;;
77724;SDS011;66892;53.236;6.550;2023-04-03T09:29:39;0.88;;;0.50;;
77724;SDS011;66892;53.236;6.550;2023-04-03T09:32:22;1.42;;;0.68;;
77724;SDS011;66892;53.236;6.550;2023-04-03T09:34:52;0.57;;;0.55;;
77724;SDS011;66892;53.236;6.550;2023-04-03T09:37:33;0.57;;;0.50;;
77724;SDS011;66892;53.236;6.550;2023-04-03T09:40:03;0.73;;;0.55;;
77724;SDS011;66892;53.236;6.550;2023-04-03T09:42:31;0.68;;;0.52;;
77724;SDS011;66892;53.236;6.550;2023-04-03T09:44:58;0.93;;;0.60;;
77724;SDS011;66892;53.236;6.550;2023-04-03T09:47:26;1.02;;;0.70;;
77724;SDS011;66892;53.236;6.550;2023-04-03T09:50:09;0.80;;;0.50;;
77724;SDS011;66892;53.236;6.550;2023-04-03T09:52:45;0.98;;;0.70;;
77724;SDS011;66892;53.236;6.550;2023-04-03T09:55:13;0.63;;;0.60;;
77724;SDS011;66892;53.236;6.550;2023-04-03T09:57:42;0.80;;;0.60;;
77724;SDS011;66892;53.236;6.550;2023-04-03T10:00:19;0.63;;;0.57;;
77724;SDS011;66892;53.236;6.550;2023-04-03T10:02:48;0.95;;;0.70;;
77724;SDS011;66892;53.236;6.550;2023-04-03T10:05:28;0.90;;;0.50;;
77724;SDS011;66892;53.236;6.550;2023-04-03T10:08:07;0.60;;;0.60;;
77724;SDS011;66892;53.236;6.550;2023-04-03T10:10:35;0.95;;;0.60;;
77724;SDS011;66892;53.236;6.550;2023-04-03T10:13:06;0.95;;;0.70;;
77724;SDS011;66892;53.236;6.550;2023-04-03T10:15:36;0.60;;;0.60;;
77724;SDS011;66892;53.236;6.550;2023-04-03T10:18:13;0.43;;;0.40;;
77724;SDS011;66892;53.236;6.550;2023-04-03T10:20:53;0.55;;;0.52;;
77724;SDS011;66892;53.236;6.550;2023-04-03T10:23:24;0.70;;;0.60;;
77724;SDS011;66892;53.236;6.550;2023-04-03T10:25:58;0.95;;;0.63;;
77724;SDS011;66892;53.236;6.550;2023-04-03T10:28:39;1.10;;;0.70;;
77724;SDS011;66892;53.236;6.550;2023-04-03T10:31:13;0.85;;;0.65;;
77724;SDS011;66892;53.236;6.550;2023-04-03T10:33:47;0.40;;;0.40;;
77724;SDS011;66892;53.236;6.550;2023-04-03T10:36:25;0.57;;;0.50;;
77724;SDS011;66892;53.236;6.550;2023-04-03T10:39:01;1.02;;;0.60;;
77724;SDS011;66892;53.236;6.550;2023-04-03T10:41:39;0.52;;;0.50;;
77724;SDS011;66892;53.236;6.550;2023-04-03T10:44:15;0.85;;;0.57;;
77724;SDS011;66892;53.236;6.550;2023-04-03T10:46:51;0.50;;;0.50;;
77724;SDS011;66892;53.236;6.550;2023-04-03T10:49:25;0.50;;;0.50;;
77724;SDS011;66892;53.236;6.550;2023-04-03T10:52:05;1.80;;;1.10;;
77724;SDS011;66892;53.236;6.550;2023-04-03T10:54:37;0.73;;;0.52;;
77724;SDS011;66892;53.236;6.550;2023-04-03T10:57:06;0.82;;;0.65;;
77724;SDS011;66892;53.236;6.550;2023-04-03T10:59:37;0.82;;;0.60;;
77724;SDS011;66892;53.236;6.550;2023-04-03T11:02:07;0.40;;;0.40;;
77724;SDS011;66892;53.236;6.550;2023-04-03T11:04:44;0.40;;;0.40;;
77724;SDS011;66892;53.236;6.550;2023-04-03T11:07:15;0.93;;;0.60;;
77724;SDS011;66892;53.236;6.550;2023-04-03T11:09:44;0.85;;;0.65;;
77724;SDS011;66892;53.236;6.550;2023-04-03T11:12:14;0.52;;;0.52;;
77724;SDS011;66892;53.236;6.550;2023-04-03T11:14:48;0.70;;;0.50;;
77724;SDS011;66892;53.236;6.550;2023-04-03T11:17:23;0.70;;;0.60;;
77724;SDS011;66892;53.236;6.550;2023-04-03T11:19:59;0.57;;;0.50;;
77724;SDS011;66892;53.236;6.550;2023-04-03T11:22:30;1.20;;;0.70;;
77724;SDS011;66892;53.236;6.550;2023-04-03T11:24:59;0.55;;;0.50;;
77724;SDS011;66892;53.236;6.550;2023-04-03T11:27:33;0.95;;;0.70;;
77724;SDS011;66892;53.236;6.550;2023-04-03T11:30:09;0.90;;;0.60;;
77724;SDS011;66892;53.236;6.550;2023-04-03T11:32:50;1.05;;;0.90;;
77724;SDS011;66892;53.236;6.550;2023-04-03T11:35:24;0.70;;;0.60;;
77724;SDS011;66892;53.236;6.550;2023-04-03T11:37:52;0.57;;;0.52;;
77724;SDS011;66892;53.236;6.550;2023-04-03T11:40:20;0.63;;;0.63;;
77724;SDS011;66892;53.236;6.550;2023-04-03T11:42:51;0.80;;;0.50;;
77724;SDS011;66892;53.236;6.550;2023-04-03T11:45:29;0.43;;;0.43;;
77724;SDS011;66892;53.236;6.550;2023-04-03T11:48:00;0.80;;;0.63;;
77724;SDS011;66892;53.236;6.550;2023-04-03T11:50:30;0.52;;;0.50;;
77724;SDS011;66892;53.236;6.550;2023-04-03T11:53:02;0.65;;;0.52;;
77724;SDS011;66892;53.236;6.550;2023-04-03T11:55:53;0.60;;;0.60;;
77724;SDS011;66892;53.236;6.550;2023-04-03T11:58:24;0.80;;;0.68;;
77724;SDS011;66892;53.236;6.550;2023-04-03T12:00:56;0.77;;;0.60;;
77724;SDS011;66892;53.236;6.550;2023-04-03T12:09:29;0.63;;;0.60;;
77724;SDS011;66892;53.236;6.550;2023-04-03T12:12:24;0.77;;;0.63;;
77724;SDS011;66892;53.236;6.550;2023-04-03T12:14:55;0.93;;;0.60;;
77724;SDS011;66892;53.236;6.550;2023-04-03T12:17:26;1.30;;;0.80;;
77724;SDS011;66892;53.236;6.550;2023-04-03T12:19:53;0.80;;;0.77;;
77724;SDS011;66892;53.236;6.550;2023-04-03T12:22:19;1.08;;;0.85;;
77724;SDS011;66892;53.236;6.550;2023-04-03T12:24:46;0.73;;;0.73;;
77724;SDS011;66892;53.236;6.550;2023-04-03T12:27:20;0.80;;;0.57;;
77724;SDS011;66892;53.236;6.550;2023-04-03T12:29:51;0.65;;;0.60;;
77724;SDS011;66892;53.236;6.550;2023-04-03T12:32:26;0.65;;;0.50;;
77724;SDS011;66892;53.236;6.550;2023-04-03T12:35:06;0.55;;;0.50;;
77724;SDS011;66892;53.236;6.550;2023-04-03T12:37:42;0.50;;;0.50;;
77724;SDS011;66892;53.236;6.550;2023-04-03T12:40:18;0.70;;;0.57;;
77724;SDS011;66892;53.236;6.550;2023-04-03T12:43:00;0.55;;;0.50;;
77724;SDS011;66892;53.236;6.550;2023-04-03T12:45:39;0.85;;;0.70;;
77724;SDS011;66892;53.236;6.550;2023-04-03T12:48:14;0.75;;;0.75;;
77724;SDS011;66892;53.236;6.550;2023-04-03T12:50:41;0.60;;;0.60;;
77724;SDS011;66892;53.236;6.550;2023-04-03T12:53:11;0.63;;;0.50;;
77724;SDS011;66892;53.236;6.550;2023-04-03T12:55:39;0.68;;;0.52;;
77724;SDS011;66892;53.236;6.550;2023-04-03T13:01:01;1.05;;;0.75;;
77724;SDS011;66892;53.236;6.550;2023-04-03T13:03:30;0.73;;;0.60;;
77724;SDS011;66892;53.236;6.550;2023-04-03T13:05:57;0.90;;;0.60;;
77724;SDS011;66892;53.236;6.550;2023-04-03T13:08:26;0.80;;;0.60;;
77724;SDS011;66892;53.236;6.550;2023-04-03T13:10:54;0.75;;;0.68;;
77724;SDS011;66892;53.236;6.550;2023-04-03T13:13:23;0.90;;;0.50;;
77724;SDS011;66892;53.236;6.550;2023-04-03T13:15:49;0.98;;;0.75;;
77724;SDS011;66892;53.236;6.550;2023-04-03T13:18:25;0.65;;;0.60;;
77724;SDS011;66892;53.236;6.550;2023-04-03T13:21:04;0.70;;;0.60;;
77724;SDS011;66892;53.236;6.550;2023-04-03T13:23:34;0.68;;;0.60;;
77724;SDS011;66892;53.236;6.550;2023-04-03T13:26:02;0.73;;;0.63;;
77724;SDS011;66892;53.236;6.550;2023-04-03T13:28:30;0.73;;;0.55;;
77724;SDS011;66892;53.236;6.550;2023-04-03T13:31:07;0.88;;;0.70;;
77724;SDS011;66892;53.236;6.550;2023-04-03T13:33:50;0.50;;;0.50;;
77724;SDS011;66892;53.236;6.550;2023-04-03T13:36:22;0.82;;;0.57;;
77724;SDS011;66892;53.236;6.550;2023-04-03T13:38:57;0.60;;;0.50;;
77724;SDS011;66892;53.236;6.550;2023-04-03T13:41:25;0.60;;;0.50;;
77724;SDS011;66892;53.236;6.550;2023-04-03T13:43:54;0.60;;;0.60;;
77724;SDS011;66892;53.236;6.550;2023-04-03T13:46:23;0.52;;;0.50;;
77724;SDS011;66892;53.236;6.550;2023-04-03T13:48:52;0.60;;;0.60;;
77724;SDS011;66892;53.236;6.550;2023-04-03T13:51:22;0.98;;;0.75;;
77724;SDS011;66892;53.236;6.550;2023-04-03T13:53:52;0.65;;;0.50;;
77724;SDS011;66892;53.236;6.550;2023-04-03T13:56:22;0.50;;;0.50;;
77724;SDS011;66892;53.236;6.550;2023-04-03T13:58:54;0.60;;;0.60;;
77724;SDS011;66892;53.236;6.550;2023-04-03T14:01:22;0.47;;;0.47;;
77724;SDS011;66892;53.236;6.550;2023-04-03T14:03:52;0.70;;;0.60;;
77724;SDS011;66892;53.236;6.550;2023-04-03T14:06:22;0.88;;;0.63;;
77724;SDS011;66892;53.236;6.550;2023-04-03T14:08:49;0.63;;;0.50;;
77724;SDS011;66892;53.236;6.550;2023-04-03T14:11:16;1.02;;;0.80;;
77724;SDS011;66892;53.236;6.550;2023-04-03T14:13:44;0.57;;;0.50;;
77724;SDS011;66892;53.236;6.550;2023-04-03T14:16:12;0.88;;;0.60;;
77724;SDS011;66892;53.236;6.550;2023-04-03T14:18:40;0.70;;;0.65;;
77724;SDS011;66892;53.236;6.550;2023-04-03T14:21:06;0.47;;;0.45;;
77724;SDS011;66892;53.236;6.550;2023-04-03T14:23:33;0.68;;;0.60;;
77724;SDS011;66892;53.236;6.550;2023-04-03T14:26:00;0.50;;;0.50;;
77724;SDS011;66892;53.236;6.550;2023-04-03T14:28:27;1.02;;;0.60;;
77724;SDS011;66892;53.236;6.550;2023-04-03T14:30:53;0.50;;;0.50;;
77724;SDS011;66892;53.236;6.550;2023-04-03T14:33:20;0.73;;;0.50;;
77724;SDS011;66892;53.236;6.550;2023-04-03T14:35:47;1.13;;;0.57;;
77724;SDS011;66892;53.236;6.550;2023-04-03T14:38:20;0.50;;;0.50;;
77724;SDS011;66892;53.236;6.550;2023-04-03T14:40:49;0.70;;;0.50;;
77724;SDS011;66892;53.236;6.550;2023-04-03T14:43:16;0.68;;;0.50;;
77724;SDS011;66892;53.236;6.550;2023-04-03T14:45:43;0.55;;;0.40;;
77724;SDS011;66892;53.236;6.550;2023-04-03T14:48:09;0.68;;;0.40;;
77724;SDS011;66892;53.236;6.550;2023-04-03T14:50:41;0.70;;;0.50;;
77724;SDS011;66892;53.236;6.550;2023-04-03T14:53:09;0.50;;;0.43;;
77724;SDS011;66892;53.236;6.550;2023-04-03T14:55:37;0.88;;;0.52;;
77724;SDS011;66892;53.236;6.550;2023-04-03T14:58:04;0.50;;;0.50;;
77724;SDS011;66892;53.236;6.550;2023-04-03T15:00:30;0.63;;;0.52;;
77724;SDS011;66892;53.236;6.550;2023-04-03T15:02:57;0.30;;;0.30;;
77724;SDS011;66892;53.236;6.550;2023-04-03T15:05:23;0.45;;;0.38;;
77724;SDS011;66892;53.236;6.550;2023-04-03T15:07:50;0.40;;;0.40;;
77724;SDS011;66892;53.236;6.550;2023-04-03T15:10:20;0.60;;;0.50;;
77724;SDS011;66892;53.236;6.550;2023-04-03T15:12:47;0.50;;;0.40;;